sensor_id;sensor_type;location;lat;lon;timestamp;P1;durP1;ratioP1;P2;durP2;ratioP2
21663;SDS011;10993;52.510;13.456;2022-10-31T00:02:09;26.48;;;14.07;;
21663;SDS011;10993;52.510;13.456;2022-10-31T00:07:11;26.92;;;13.93;;
21663;SDS011;10993;52.510;13.456;2022-10-31T00:12:11;23.23;;;14.30;;
21663;SDS011;10993;52.510;13.456;2022-10-31T00:17:12;27.75;;;13.75;;
21663;SDS011;10993;52.510;13.456;2022-10-31T00:22:13;23.48;;;13.18;;
21663;SDS011;10993;52.510;13.456;2022-10-31T00:27:14;25.60;;;14.95;;
21663;SDS011;10993;52.510;13.456;2022-10-31T00:32:14;23.00;;;12.63;;
21663;SDS011;10993;52.510;13.456;2022-10-31T00:37:16;28.23;;;13.50;;
21663;SDS011;10993;52.510;13.456;2022-10-31T00:42:16;27.60;;;14.45;;
21663;SDS011;10993;52.510;13.456;2022-10-31T00:47:17;32.42;;;13.55;;
21663;SDS011;10993;52.510;13.456;2022-10-31T00:52:18;33.95;;;16.33;;
21663;SDS011;10993;52.510;13.456;2022-10-31T00:57:18;32.17;;;16.45;;
21663;SDS011;10993;52.510;13.456;2022-10-31T01:02:19;70.97;;;29.33;;
21663;SDS011;10993;52.510;13.456;2022-10-31T01:07:21;54.03;;;24.02;;
21663;SDS011;10993;52.510;13.456;2022-10-31T01:12:21;37.58;;;17.60;;
21663;SDS011;10993;52.510;13.456;2022-10-31T01:17:21;25.45;;;13.73;;
21663;SDS011;10993;52.510;13.456;2022-10-31T01:22:26;20.80;;;11.52;;
21663;SDS011;10993;52.510;13.456;2022-10-31T01:27:27;23.48;;;12.77;;
21663;SDS011;10993;52.510;13.456;2022-10-31T01:32:27;21.83;;;11.60;;
21663;SDS011;10993;52.510;13.456;2022-10-31T01:37:30;19.38;;;10.13;;
21663;SDS011;10993;52.510;13.456;2022-10-31T01:42:31;17.40;;;10.40;;
21663;SDS011;10993;52.510;13.456;2022-10-31T01:47:38;16.27;;;9.65;;
21663;SDS011;10993;52.510;13.456;2022-10-31T01:52:45;15.60;;;9.13;;
21663;SDS011;10993;52.510;13.456;2022-10-31T01:57:50;14.68;;;8.68;;
21663;SDS011;10993;52.510;13.456;2022-10-31T02:02:53;14.80;;;8.30;;
21663;SDS011;10993;52.510;13.456;2022-10-31T02:07:58;14.02;;;8.45;;
21663;SDS011;10993;52.510;13.456;2022-10-31T02:13:02;14.60;;;8.05;;
21663;SDS011;10993;52.510;13.456;2022-10-31T02:18:05;15.65;;;8.48;;
21663;SDS011;10993;52.510;13.456;2022-10-31T02:28:49;13.60;;;7.97;;
21663;SDS011;10993;52.510;13.456;2022-10-31T02:34:08;12.18;;;7.20;;
21663;SDS011;10993;52.510;13.456;2022-10-31T02:39:18;16.30;;;8.73;;
21663;SDS011;10993;52.510;13.456;2022-10-31T02:44:24;16.73;;;8.98;;
21663;SDS011;10993;52.510;13.456;2022-10-31T02:49:33;17.13;;;8.65;;
21663;SDS011;10993;52.510;13.456;2022-10-31T02:54:38;14.00;;;8.13;;
21663;SDS011;10993;52.510;13.456;2022-10-31T02:59:39;16.58;;;8.32;;
21663;SDS011;10993;52.510;13.456;2022-10-31T03:04:49;16.92;;;8.68;;
21663;SDS011;10993;52.510;13.456;2022-10-31T03:10:03;17.92;;;9.40;;
21663;SDS011;10993;52.510;13.456;2022-10-31T03:15:12;12.82;;;8.02;;
21663;SDS011;10993;52.510;13.456;2022-10-31T03:20:21;16.58;;;7.93;;
21663;SDS011;10993;52.510;13.456;2022-10-31T03:25:26;11.90;;;6.70;;
21663;SDS011;10993;52.510;13.456;2022-10-31T03:30:27;11.18;;;7.20;;
21663;SDS011;10993;52.510;13.456;2022-10-31T03:35:31;14.75;;;7.13;;
21663;SDS011;10993;52.510;13.456;2022-10-31T03:40:34;12.95;;;6.80;;
21663;SDS011;10993;52.510;13.456;2022-10-31T03:45:38;11.65;;;6.50;;
21663;SDS011;10993;52.510;13.456;2022-10-31T03:50:45;13.80;;;6.22;;
21663;SDS011;10993;52.510;13.456;2022-10-31T03:55:53;13.32;;;7.40;;
21663;SDS011;10993;52.510;13.456;2022-10-31T04:00:59;11.25;;;6.05;;
21663;SDS011;10993;52.510;13.456;2022-10-31T04:06:04;15.15;;;6.50;;
21663;SDS011;10993;52.510;13.456;2022-10-31T04:11:07;13.13;;;6.75;;
21663;SDS011;10993;52.510;13.456;2022-10-31T04:16:09;14.68;;;6.53;;
21663;SDS011;10993;52.510;13.456;2022-10-31T04:21:12;11.35;;;6.18;;
21663;SDS011;10993;52.510;13.456;2022-10-31T04:26:12;10.75;;;5.90;;
21663;SDS011;10993;52.510;13.456;2022-10-31T04:31:13;13.35;;;6.50;;
21663;SDS011;10993;52.510;13.456;2022-10-31T04:36:15;11.70;;;5.75;;
21663;SDS011;10993;52.510;13.456;2022-10-31T04:41:15;12.18;;;6.07;;
21663;SDS011;10993;52.510;13.456;2022-10-31T04:46:16;11.55;;;6.15;;
21663;SDS011;10993;52.510;13.456;2022-10-31T04:51:17;11.77;;;5.85;;
21663;SDS011;10993;52.510;13.456;2022-10-31T04:56:18;12.90;;;6.63;;
21663;SDS011;10993;52.510;13.456;2022-10-31T05:01:18;10.30;;;5.90;;
21663;SDS011;10993;52.510;13.456;2022-10-31T05:06:20;13.23;;;7.15;;
21663;SDS011;10993;52.510;13.456;2022-10-31T05:11:20;9.93;;;5.55;;
21663;SDS011;10993;52.510;13.456;2022-10-31T05:16:20;12.15;;;6.20;;
21663;SDS011;10993;52.510;13.456;2022-10-31T05:21:22;12.98;;;5.90;;
21663;SDS011;10993;52.510;13.456;2022-10-31T05:26:22;12.35;;;6.47;;
21663;SDS011;10993;52.510;13.456;2022-10-31T05:31:23;16.90;;;7.18;;
21663;SDS011;10993;52.510;13.456;2022-10-31T05:36:25;15.60;;;6.88;;
21663;SDS011;10993;52.510;13.456;2022-10-31T05:41:25;14.52;;;6.63;;
21663;SDS011;10993;52.510;13.456;2022-10-31T05:46:25;12.75;;;6.70;;
21663;SDS011;10993;52.510;13.456;2022-10-31T05:51:27;11.32;;;6.13;;
21663;SDS011;10993;52.510;13.456;2022-10-31T05:56:27;11.48;;;5.97;;
21663;SDS011;10993;52.510;13.456;2022-10-31T06:01:28;13.65;;;6.68;;
21663;SDS011;10993;52.510;13.456;2022-10-31T06:06:29;12.82;;;6.28;;
21663;SDS011;10993;52.510;13.456;2022-10-31T06:11:30;11.55;;;6.43;;
21663;SDS011;10993;52.510;13.456;2022-10-31T06:16:30;14.10;;;6.85;;
21663;SDS011;10993;52.510;13.456;2022-10-31T06:21:32;16.75;;;7.43;;
21663;SDS011;10993;52.510;13.456;2022-10-31T06:26:32;18.60;;;7.55;;
21663;SDS011;10993;52.510;13.456;2022-10-31T06:31:32;12.45;;;6.50;;
21663;SDS011;10993;52.510;13.456;2022-10-31T06:36:34;12.75;;;7.70;;
21663;SDS011;10993;52.510;13.456;2022-10-31T06:41:34;14.50;;;7.47;;
21663;SDS011;10993;52.510;13.456;2022-10-31T06:46:36;13.80;;;7.07;;
21663;SDS011;10993;52.510;13.456;2022-10-31T06:51:38;15.70;;;7.82;;
21663;SDS011;10993;52.510;13.456;2022-10-31T06:56:38;17.88;;;8.55;;
21663;SDS011;10993;52.510;13.456;2022-10-31T07:01:38;17.13;;;9.63;;
21663;SDS011;10993;52.510;13.456;2022-10-31T07:06:40;22.42;;;10.77;;
21663;SDS011;10993;52.510;13.456;2022-10-31T07:11:41;16.88;;;9.60;;
21663;SDS011;10993;52.510;13.456;2022-10-31T07:16:41;21.08;;;10.88;;
21663;SDS011;10993;52.510;13.456;2022-10-31T07:21:43;24.77;;;10.90;;
21663;SDS011;10993;52.510;13.456;2022-10-31T07:26:43;14.38;;;8.38;;
21663;SDS011;10993;52.510;13.456;2022-10-31T07:31:46;18.02;;;8.32;;
21663;SDS011;10993;52.510;13.456;2022-10-31T07:36:47;12.57;;;7.22;;
21663;SDS011;10993;52.510;13.456;2022-10-31T07:41:50;11.75;;;7.28;;
21663;SDS011;10993;52.510;13.456;2022-10-31T07:46:50;12.40;;;6.63;;
21663;SDS011;10993;52.510;13.456;2022-10-31T07:51:52;11.93;;;6.57;;
21663;SDS011;10993;52.510;13.456;2022-10-31T07:56:52;13.23;;;6.78;;
21663;SDS011;10993;52.510;13.456;2022-10-31T08:01:53;12.93;;;7.17;;
21663;SDS011;10993;52.510;13.456;2022-10-31T08:06:54;14.07;;;7.53;;
21663;SDS011;10993;52.510;13.456;2022-10-31T08:11:55;14.18;;;7.82;;
21663;SDS011;10993;52.510;13.456;2022-10-31T08:16:55;15.33;;;8.50;;
21663;SDS011;10993;52.510;13.456;2022-10-31T08:21:57;14.80;;;7.73;;
21663;SDS011;10993;52.510;13.456;2022-10-31T08:26:58;11.73;;;7.85;;
21663;SDS011;10993;52.510;13.456;2022-10-31T08:31:58;17.90;;;8.20;;
21663;SDS011;10993;52.510;13.456;2022-10-31T08:37:00;15.05;;;8.93;;
21663;SDS011;10993;52.510;13.456;2022-10-31T08:42:00;13.93;;;8.05;;
21663;SDS011;10993;52.510;13.456;2022-10-31T08:47:00;15.77;;;7.93;;
21663;SDS011;10993;52.510;13.456;2022-10-31T08:52:02;15.98;;;8.38;;
21663;SDS011;10993;52.510;13.456;2022-10-31T08:57:03;17.27;;;8.50;;
21663;SDS011;10993;52.510;13.456;2022-10-31T09:02:04;17.85;;;8.50;;
21663;SDS011;10993;52.510;13.456;2022-10-31T09:07:06;12.45;;;7.50;;
21663;SDS011;10993;52.510;13.456;2022-10-31T09:12:06;15.52;;;8.30;;
21663;SDS011;10993;52.510;13.456;2022-10-31T09:17:07;15.27;;;7.68;;
21663;SDS011;10993;52.510;13.456;2022-10-31T09:22:08;18.15;;;7.22;;
21663;SDS011;10993;52.510;13.456;2022-10-31T09:27:09;16.35;;;8.32;;
21663;SDS011;10993;52.510;13.456;2022-10-31T09:32:09;13.43;;;8.02;;
21663;SDS011;10993;52.510;13.456;2022-10-31T09:37:11;13.90;;;8.03;;
21663;SDS011;10993;52.510;13.456;2022-10-31T09:42:20;10.40;;;6.85;;
21663;SDS011;10993;52.510;13.456;2022-10-31T09:47:33;16.63;;;8.82;;
21663;SDS011;10993;52.510;13.456;2022-10-31T09:52:46;17.55;;;8.48;;
21663;SDS011;10993;52.510;13.456;2022-10-31T09:57:53;16.42;;;10.02;;
21663;SDS011;10993;52.510;13.456;2022-10-31T10:02:56;17.33;;;9.52;;
21663;SDS011;10993;52.510;13.456;2022-10-31T10:08:04;18.50;;;10.55;;
21663;SDS011;10993;52.510;13.456;2022-10-31T10:13:14;20.75;;;10.52;;
21663;SDS011;10993;52.510;13.456;2022-10-31T10:18:35;18.05;;;11.00;;
21663;SDS011;10993;52.510;13.456;2022-10-31T10:23:48;18.48;;;11.00;;
21663;SDS011;10993;52.510;13.456;2022-10-31T10:28:56;16.77;;;10.07;;
21663;SDS011;10993;52.510;13.456;2022-10-31T10:34:01;21.17;;;11.98;;
21663;SDS011;10993;52.510;13.456;2022-10-31T10:39:11;17.13;;;10.73;;
21663;SDS011;10993;52.510;13.456;2022-10-31T10:44:16;18.65;;;10.57;;
21663;SDS011;10993;52.510;13.456;2022-10-31T10:49:17;19.45;;;11.25;;
21663;SDS011;10993;52.510;13.456;2022-10-31T10:59:55;21.85;;;11.32;;
21663;SDS011;10993;52.510;13.456;2022-10-31T11:04:56;20.27;;;10.63;;
21663;SDS011;10993;52.510;13.456;2022-10-31T11:10:04;19.05;;;9.77;;
21663;SDS011;10993;52.510;13.456;2022-10-31T11:15:17;18.88;;;10.57;;
21663;SDS011;10993;52.510;13.456;2022-10-31T11:20:25;14.65;;;9.18;;
21663;SDS011;10993;52.510;13.456;2022-10-31T11:25:31;16.77;;;9.18;;
21663;SDS011;10993;52.510;13.456;2022-10-31T11:30:35;16.10;;;10.35;;
21663;SDS011;10993;52.510;13.456;2022-10-31T11:35:43;15.20;;;9.43;;
21663;SDS011;10993;52.510;13.456;2022-10-31T11:40:52;13.85;;;9.25;;
21663;SDS011;10993;52.510;13.456;2022-10-31T11:45:54;16.77;;;11.52;;
21663;SDS011;10993;52.510;13.456;2022-10-31T11:50:56;20.88;;;11.45;;
21663;SDS011;10993;52.510;13.456;2022-10-31T11:56:02;16.65;;;11.13;;
21663;SDS011;10993;52.510;13.456;2022-10-31T12:01:05;16.20;;;9.77;;
21663;SDS011;10993;52.510;13.456;2022-10-31T12:06:07;15.93;;;9.43;;
21663;SDS011;10993;52.510;13.456;2022-10-31T12:11:17;17.02;;;9.98;;
21663;SDS011;10993;52.510;13.456;2022-10-31T12:16:32;19.40;;;11.38;;
21663;SDS011;10993;52.510;13.456;2022-10-31T12:21:43;20.75;;;11.48;;
21663;SDS011;10993;52.510;13.456;2022-10-31T12:27:02;20.45;;;11.68;;
21663;SDS011;10993;52.510;13.456;2022-10-31T12:32:15;20.95;;;11.82;;
21663;SDS011;10993;52.510;13.456;2022-10-31T12:37:32;20.83;;;11.25;;
21663;SDS011;10993;52.510;13.456;2022-10-31T12:42:46;20.20;;;10.52;;
21663;SDS011;10993;52.510;13.456;2022-10-31T12:48:00;20.95;;;11.48;;
21663;SDS011;10993;52.510;13.456;2022-10-31T12:53:14;22.10;;;11.20;;
21663;SDS011;10993;52.510;13.456;2022-10-31T12:58:31;21.85;;;11.10;;
21663;SDS011;10993;52.510;13.456;2022-10-31T13:03:38;19.10;;;10.93;;
21663;SDS011;10993;52.510;13.456;2022-10-31T13:08:44;25.80;;;12.88;;
21663;SDS011;10993;52.510;13.456;2022-10-31T13:13:52;19.38;;;11.63;;
21663;SDS011;10993;52.510;13.456;2022-10-31T13:18:58;23.00;;;12.98;;
21663;SDS011;10993;52.510;13.456;2022-10-31T13:24:04;22.10;;;11.13;;
21663;SDS011;10993;52.510;13.456;2022-10-31T13:29:15;18.77;;;11.02;;
21663;SDS011;10993;52.510;13.456;2022-10-31T13:34:22;21.35;;;12.05;;
21663;SDS011;10993;52.510;13.456;2022-10-31T13:39:29;26.95;;;12.48;;
21663;SDS011;10993;52.510;13.456;2022-10-31T13:44:41;25.40;;;12.55;;
21663;SDS011;10993;52.510;13.456;2022-10-31T13:49:41;26.40;;;13.27;;
21663;SDS011;10993;52.510;13.456;2022-10-31T13:54:42;22.77;;;12.25;;
21663;SDS011;10993;52.510;13.456;2022-10-31T13:59:47;18.80;;;11.32;;
21663;SDS011;10993;52.510;13.456;2022-10-31T14:04:51;25.10;;;13.77;;
21663;SDS011;10993;52.510;13.456;2022-10-31T14:09:56;22.15;;;12.25;;
21663;SDS011;10993;52.510;13.456;2022-10-31T14:15:04;22.38;;;13.32;;
21663;SDS011;10993;52.510;13.456;2022-10-31T14:20:21;41.42;;;18.45;;
21663;SDS011;10993;52.510;13.456;2022-10-31T14:25:26;26.02;;;13.88;;
21663;SDS011;10993;52.510;13.456;2022-10-31T14:30:33;22.58;;;11.40;;
21663;SDS011;10993;52.510;13.456;2022-10-31T14:35:37;22.27;;;12.55;;
21663;SDS011;10993;52.510;13.456;2022-10-31T14:40:59;20.27;;;12.82;;
21663;SDS011;10993;52.510;13.456;2022-10-31T14:46:22;24.00;;;12.35;;
21663;SDS011;10993;52.510;13.456;2022-10-31T14:51:33;23.77;;;12.82;;
21663;SDS011;10993;52.510;13.456;2022-10-31T14:56:37;21.83;;;12.45;;
21663;SDS011;10993;52.510;13.456;2022-10-31T15:01:50;25.55;;;13.65;;
21663;SDS011;10993;52.510;13.456;2022-10-31T15:06:57;32.40;;;14.45;;
21663;SDS011;10993;52.510;13.456;2022-10-31T15:12:16;29.45;;;14.35;;
21663;SDS011;10993;52.510;13.456;2022-10-31T15:17:24;26.70;;;14.43;;
21663;SDS011;10993;52.510;13.456;2022-10-31T15:22:26;25.52;;;13.20;;
21663;SDS011;10993;52.510;13.456;2022-10-31T15:27:29;30.83;;;14.38;;
21663;SDS011;10993;52.510;13.456;2022-10-31T15:32:32;30.83;;;15.27;;
21663;SDS011;10993;52.510;13.456;2022-10-31T15:37:32;28.58;;;14.45;;
21663;SDS011;10993;52.510;13.456;2022-10-31T15:42:34;29.33;;;15.73;;
21663;SDS011;10993;52.510;13.456;2022-10-31T15:47:44;29.52;;;15.40;;
21663;SDS011;10993;52.510;13.456;2022-10-31T15:52:46;39.83;;;18.25;;
21663;SDS011;10993;52.510;13.456;2022-10-31T15:57:48;29.88;;;14.70;;
21663;SDS011;10993;52.510;13.456;2022-10-31T16:03:02;31.38;;;15.55;;
21663;SDS011;10993;52.510;13.456;2022-10-31T16:08:04;33.70;;;15.40;;
21663;SDS011;10993;52.510;13.456;2022-10-31T16:13:25;28.13;;;14.95;;
21663;SDS011;10993;52.510;13.456;2022-10-31T16:18:30;32.63;;;14.48;;
21663;SDS011;10993;52.510;13.456;2022-10-31T16:23:36;29.45;;;15.65;;
21663;SDS011;10993;52.510;13.456;2022-10-31T16:28:39;37.72;;;15.45;;
21663;SDS011;10993;52.510;13.456;2022-10-31T16:34:00;30.60;;;15.07;;
21663;SDS011;10993;52.510;13.456;2022-10-31T16:39:02;29.88;;;16.35;;
21663;SDS011;10993;52.510;13.456;2022-10-31T16:44:03;40.75;;;17.48;;
21663;SDS011;10993;52.510;13.456;2022-10-31T16:49:08;34.70;;;16.90;;
21663;SDS011;10993;52.510;13.456;2022-10-31T16:54:09;37.25;;;17.83;;
21663;SDS011;10993;52.510;13.456;2022-10-31T16:59:10;37.53;;;17.70;;
21663;SDS011;10993;52.510;13.456;2022-10-31T17:04:14;34.45;;;17.63;;
21663;SDS011;10993;52.510;13.456;2022-10-31T17:09:14;33.90;;;17.05;;
21663;SDS011;10993;52.510;13.456;2022-10-31T17:14:15;38.35;;;19.10;;
21663;SDS011;10993;52.510;13.456;2022-10-31T17:19:17;37.15;;;17.63;;
21663;SDS011;10993;52.510;13.456;2022-10-31T17:24:17;41.70;;;19.85;;
21663;SDS011;10993;52.510;13.456;2022-10-31T17:29:18;35.92;;;18.13;;
21663;SDS011;10993;52.510;13.456;2022-10-31T17:34:19;38.10;;;18.20;;
21663;SDS011;10993;52.510;13.456;2022-10-31T17:39:20;42.65;;;18.88;;
21663;SDS011;10993;52.510;13.456;2022-10-31T17:44:21;32.08;;;17.25;;
21663;SDS011;10993;52.510;13.456;2022-10-31T17:49:23;36.97;;;18.65;;
21663;SDS011;10993;52.510;13.456;2022-10-31T17:54:23;36.10;;;17.27;;
21663;SDS011;10993;52.510;13.456;2022-10-31T17:59:24;41.58;;;19.33;;
21663;SDS011;10993;52.510;13.456;2022-10-31T18:04:27;42.65;;;20.02;;
21663;SDS011;10993;52.510;13.456;2022-10-31T18:09:28;39.78;;;18.45;;
21663;SDS011;10993;52.510;13.456;2022-10-31T18:14:28;41.53;;;18.92;;
21663;SDS011;10993;52.510;13.456;2022-10-31T18:19:30;37.72;;;18.35;;
21663;SDS011;10993;52.510;13.456;2022-10-31T18:24:30;40.92;;;18.65;;
21663;SDS011;10993;52.510;13.456;2022-10-31T18:29:31;41.83;;;20.00;;
21663;SDS011;10993;52.510;13.456;2022-10-31T18:34:33;36.03;;;17.65;;
21663;SDS011;10993;52.510;13.456;2022-10-31T18:39:33;35.42;;;17.33;;
21663;SDS011;10993;52.510;13.456;2022-10-31T18:44:34;38.22;;;17.92;;
21663;SDS011;10993;52.510;13.456;2022-10-31T18:49:35;33.35;;;16.77;;
21663;SDS011;10993;52.510;13.456;2022-10-31T18:54:36;39.53;;;18.35;;
21663;SDS011;10993;52.510;13.456;2022-10-31T18:59:36;33.50;;;16.17;;
21663;SDS011;10993;52.510;13.456;2022-10-31T19:04:38;37.80;;;18.83;;
21663;SDS011;10993;52.510;13.456;2022-10-31T19:09:38;33.92;;;17.73;;
21663;SDS011;10993;52.510;13.456;2022-10-31T19:14:39;35.05;;;17.77;;
21663;SDS011;10993;52.510;13.456;2022-10-31T19:19:40;38.05;;;17.77;;
21663;SDS011;10993;52.510;13.456;2022-10-31T19:24:40;36.70;;;16.30;;
21663;SDS011;10993;52.510;13.456;2022-10-31T19:29:41;34.58;;;17.25;;
21663;SDS011;10993;52.510;13.456;2022-10-31T19:34:43;30.80;;;17.17;;
21663;SDS011;10993;52.510;13.456;2022-10-31T19:39:44;33.67;;;15.98;;
21663;SDS011;10993;52.510;13.456;2022-10-31T19:44:44;32.55;;;17.08;;
21663;SDS011;10993;52.510;13.456;2022-10-31T19:49:46;35.20;;;17.13;;
21663;SDS011;10993;52.510;13.456;2022-10-31T19:54:46;30.15;;;16.02;;
21663;SDS011;10993;52.510;13.456;2022-10-31T19:59:46;35.30;;;18.33;;
21663;SDS011;10993;52.510;13.456;2022-10-31T20:04:48;36.33;;;18.17;;
21663;SDS011;10993;52.510;13.456;2022-10-31T20:09:48;37.92;;;18.55;;
21663;SDS011;10993;52.510;13.456;2022-10-31T20:14:49;35.38;;;17.95;;
21663;SDS011;10993;52.510;13.456;2022-10-31T20:19:51;33.17;;;17.52;;
21663;SDS011;10993;52.510;13.456;2022-10-31T20:24:51;30.35;;;17.95;;
21663;SDS011;10993;52.510;13.456;2022-10-31T20:29:52;35.05;;;17.90;;
21663;SDS011;10993;52.510;13.456;2022-10-31T20:34:53;34.08;;;17.23;;
21663;SDS011;10993;52.510;13.456;2022-10-31T20:39:53;32.38;;;17.15;;
21663;SDS011;10993;52.510;13.456;2022-10-31T20:44:54;29.52;;;16.23;;
21663;SDS011;10993;52.510;13.456;2022-10-31T20:49:56;31.58;;;16.08;;
21663;SDS011;10993;52.510;13.456;2022-10-31T20:54:56;29.50;;;15.85;;
21663;SDS011;10993;52.510;13.456;2022-10-31T20:59:56;30.73;;;16.27;;
21663;SDS011;10993;52.510;13.456;2022-10-31T21:04:58;26.85;;;15.32;;
21663;SDS011;10993;52.510;13.456;2022-10-31T21:09:59;32.30;;;16.15;;
21663;SDS011;10993;52.510;13.456;2022-10-31T21:14:59;27.70;;;15.18;;
21663;SDS011;10993;52.510;13.456;2022-10-31T21:20:01;28.52;;;14.85;;
21663;SDS011;10993;52.510;13.456;2022-10-31T21:25:01;28.42;;;15.57;;
21663;SDS011;10993;52.510;13.456;2022-10-31T21:30:02;27.88;;;14.98;;
21663;SDS011;10993;52.510;13.456;2022-10-31T21:35:04;29.00;;;14.65;;
21663;SDS011;10993;52.510;13.456;2022-10-31T21:40:05;24.33;;;14.45;;
21663;SDS011;10993;52.510;13.456;2022-10-31T21:45:06;28.60;;;15.45;;
21663;SDS011;10993;52.510;13.456;2022-10-31T21:50:09;31.83;;;15.45;;
21663;SDS011;10993;52.510;13.456;2022-10-31T21:55:09;29.00;;;15.27;;
21663;SDS011;10993;52.510;13.456;2022-10-31T22:00:10;30.27;;;15.63;;
21663;SDS011;10993;52.510;13.456;2022-10-31T22:05:12;25.45;;;15.02;;
21663;SDS011;10993;52.510;13.456;2022-10-31T22:10:12;29.42;;;15.10;;
21663;SDS011;10993;52.510;13.456;2022-10-31T22:15:13;26.58;;;14.68;;
21663;SDS011;10993;52.510;13.456;2022-10-31T22:20:14;28.60;;;16.05;;
21663;SDS011;10993;52.510;13.456;2022-10-31T22:25:15;31.38;;;16.17;;
21663;SDS011;10993;52.510;13.456;2022-10-31T22:30:15;32.85;;;15.88;;
21663;SDS011;10993;52.510;13.456;2022-10-31T22:35:17;32.35;;;15.75;;
21663;SDS011;10993;52.510;13.456;2022-10-31T22:40:17;24.90;;;13.90;;
21663;SDS011;10993;52.510;13.456;2022-10-31T22:45:18;25.98;;;15.55;;
21663;SDS011;10993;52.510;13.456;2022-10-31T22:50:20;28.75;;;16.48;;
21663;SDS011;10993;52.510;13.456;2022-10-31T22:55:20;35.33;;;17.80;;
21663;SDS011;10993;52.510;13.456;2022-10-31T23:00:20;37.53;;;17.67;;
21663;SDS011;10993;52.510;13.456;2022-10-31T23:05:22;36.55;;;17.15;;
21663;SDS011;10993;52.510;13.456;2022-10-31T23:10:22;37.38;;;18.65;;
21663;SDS011;10993;52.510;13.456;2022-10-31T23:15:33;35.88;;;18.48;;
21663;SDS011;10993;52.510;13.456;2022-10-31T23:20:37;36.67;;;18.48;;
21663;SDS011;10993;52.510;13.456;2022-10-31T23:25:37;38.92;;;18.98;;
21663;SDS011;10993;52.510;13.456;2022-10-31T23:30:56;32.33;;;16.98;;
21663;SDS011;10993;52.510;13.456;2022-10-31T23:35:58;33.97;;;17.33;;
21663;SDS011;10993;52.510;13.456;2022-10-31T23:40:59;36.65;;;18.77;;
21663;SDS011;10993;52.510;13.456;2022-10-31T23:45:59;35.60;;;17.45;;
21663;SDS011;10993;52.510;13.456;2022-10-31T23:51:01;38.30;;;18.33;;
21663;SDS011;10993;52.510;13.456;2022-10-31T23:56:01;37.50;;;18.30;;
